sensor_id;sensor_type;location;lat;lon;timestamp;P1;durP1;ratioP1;P2;durP2;ratioP2
55829;SDS011;41759;53.330;6.002;2024-03-08T00:01:15;31.65;;;14.52;;
55829;SDS011;41759;53.330;6.002;2024-03-08T00:03:41;31.00;;;15.70;;
55829;SDS011;41759;53.330;6.002;2024-03-08T00:06:07;35.55;;;15.35;;
55829;SDS011;41759;53.330;6.002;2024-03-08T00:08:33;32.50;;;15.38;;
55829;SDS011;41759;53.330;6.002;2024-03-08T00:10:59;33.70;;;15.65;;
55829;SDS011;41759;53.330;6.002;2024-03-08T00:13:25;35.72;;;15.50;;
55829;SDS011;41759;53.330;6.002;2024-03-08T00:15:50;30.75;;;16.10;;
55829;SDS011;41759;53.330;6.002;2024-03-08T00:18:16;33.25;;;16.52;;
55829;SDS011;41759;53.330;6.002;2024-03-08T00:20:42;36.55;;;16.52;;
55829;SDS011;41759;53.330;6.002;2024-03-08T00:23:09;40.63;;;17.52;;
55829;SDS011;41759;53.330;6.002;2024-03-08T00:25:36;39.30;;;19.08;;
55829;SDS011;41759;53.330;6.002;2024-03-08T00:28:01;38.05;;;19.15;;
55829;SDS011;41759;53.330;6.002;2024-03-08T00:30:29;38.13;;;19.13;;
55829;SDS011;41759;53.330;6.002;2024-03-08T00:32:56;40.97;;;19.02;;
55829;SDS011;41759;53.330;6.002;2024-03-08T00:35:21;46.33;;;20.88;;
55829;SDS011;41759;53.330;6.002;2024-03-08T00:37:48;42.03;;;19.45;;
55829;SDS011;41759;53.330;6.002;2024-03-08T00:40:13;46.13;;;19.17;;
55829;SDS011;41759;53.330;6.002;2024-03-08T00:42:39;41.72;;;20.15;;
55829;SDS011;41759;53.330;6.002;2024-03-08T00:45:06;47.92;;;22.35;;
55829;SDS011;41759;53.330;6.002;2024-03-08T00:47:32;46.78;;;21.77;;
55829;SDS011;41759;53.330;6.002;2024-03-08T00:49:58;47.10;;;21.52;;
55829;SDS011;41759;53.330;6.002;2024-03-08T00:52:24;48.38;;;21.83;;
55829;SDS011;41759;53.330;6.002;2024-03-08T00:54:49;47.60;;;22.60;;
55829;SDS011;41759;53.330;6.002;2024-03-08T00:57:15;46.97;;;21.45;;
55829;SDS011;41759;53.330;6.002;2024-03-08T00:59:41;51.88;;;22.27;;
55829;SDS011;41759;53.330;6.002;2024-03-08T01:02:07;48.45;;;21.40;;
55829;SDS011;41759;53.330;6.002;2024-03-08T01:04:34;49.97;;;22.30;;
55829;SDS011;41759;53.330;6.002;2024-03-08T01:07:00;46.45;;;23.33;;
55829;SDS011;41759;53.330;6.002;2024-03-08T01:09:26;51.83;;;22.80;;
55829;SDS011;41759;53.330;6.002;2024-03-08T01:11:55;56.10;;;24.58;;
55829;SDS011;41759;53.330;6.002;2024-03-08T01:14:21;54.38;;;22.75;;
55829;SDS011;41759;53.330;6.002;2024-03-08T01:16:56;59.05;;;24.15;;
55829;SDS011;41759;53.330;6.002;2024-03-08T01:19:22;48.33;;;21.80;;
55829;SDS011;41759;53.330;6.002;2024-03-08T01:21:48;53.28;;;24.50;;
55829;SDS011;41759;53.330;6.002;2024-03-08T01:24:14;49.35;;;22.83;;
55829;SDS011;41759;53.330;6.002;2024-03-08T01:26:40;47.05;;;21.77;;
55829;SDS011;41759;53.330;6.002;2024-03-08T01:29:05;50.47;;;21.55;;
55829;SDS011;41759;53.330;6.002;2024-03-08T01:31:31;49.42;;;23.40;;
55829;SDS011;41759;53.330;6.002;2024-03-08T01:33:57;44.05;;;21.67;;
55829;SDS011;41759;53.330;6.002;2024-03-08T01:36:23;51.53;;;22.70;;
55829;SDS011;41759;53.330;6.002;2024-03-08T01:38:49;55.05;;;24.20;;
55829;SDS011;41759;53.330;6.002;2024-03-08T01:41:15;57.22;;;23.92;;
55829;SDS011;41759;53.330;6.002;2024-03-08T01:43:42;54.08;;;23.63;;
55829;SDS011;41759;53.330;6.002;2024-03-08T01:46:09;49.60;;;24.42;;
55829;SDS011;41759;53.330;6.002;2024-03-08T01:48:37;55.15;;;23.20;;
55829;SDS011;41759;53.330;6.002;2024-03-08T01:51:04;52.88;;;23.70;;
55829;SDS011;41759;53.330;6.002;2024-03-08T01:53:30;56.08;;;22.98;;
55829;SDS011;41759;53.330;6.002;2024-03-08T01:55:57;51.72;;;24.08;;
55829;SDS011;41759;53.330;6.002;2024-03-08T01:58:23;56.90;;;24.27;;
55829;SDS011;41759;53.330;6.002;2024-03-08T02:00:51;51.88;;;25.05;;
55829;SDS011;41759;53.330;6.002;2024-03-08T02:03:18;54.00;;;24.55;;
55829;SDS011;41759;53.330;6.002;2024-03-08T02:05:44;59.60;;;26.25;;
55829;SDS011;41759;53.330;6.002;2024-03-08T02:08:10;51.20;;;22.17;;
55829;SDS011;41759;53.330;6.002;2024-03-08T02:10:40;51.42;;;22.98;;
55829;SDS011;41759;53.330;6.002;2024-03-08T02:13:06;52.45;;;22.95;;
55829;SDS011;41759;53.330;6.002;2024-03-08T02:18:21;52.33;;;23.23;;
55829;SDS011;41759;53.330;6.002;2024-03-08T02:20:51;49.88;;;22.45;;
55829;SDS011;41759;53.330;6.002;2024-03-08T02:23:21;54.08;;;23.20;;
55829;SDS011;41759;53.330;6.002;2024-03-08T02:25:48;54.33;;;23.40;;
55829;SDS011;41759;53.330;6.002;2024-03-08T02:28:14;48.65;;;24.55;;
55829;SDS011;41759;53.330;6.002;2024-03-08T02:30:48;49.03;;;23.35;;
55829;SDS011;41759;53.330;6.002;2024-03-08T02:33:16;46.10;;;22.77;;
55829;SDS011;41759;53.330;6.002;2024-03-08T02:35:46;55.22;;;23.35;;
55829;SDS011;41759;53.330;6.002;2024-03-08T02:38:16;55.40;;;23.98;;
55829;SDS011;41759;53.330;6.002;2024-03-08T02:40:47;50.38;;;22.48;;
55829;SDS011;41759;53.330;6.002;2024-03-08T02:43:17;48.97;;;22.70;;
55829;SDS011;41759;53.330;6.002;2024-03-08T02:45:43;51.78;;;22.95;;
55829;SDS011;41759;53.330;6.002;2024-03-08T02:48:10;51.30;;;23.05;;
55829;SDS011;41759;53.330;6.002;2024-03-08T02:50:37;52.00;;;20.35;;
55829;SDS011;41759;53.330;6.002;2024-03-08T02:53:04;50.58;;;22.17;;
55829;SDS011;41759;53.330;6.002;2024-03-08T02:55:30;50.00;;;22.73;;
55829;SDS011;41759;53.330;6.002;2024-03-08T02:57:58;51.53;;;22.35;;
55829;SDS011;41759;53.330;6.002;2024-03-08T03:00:24;47.10;;;21.35;;
55829;SDS011;41759;53.330;6.002;2024-03-08T03:02:50;46.35;;;19.63;;
55829;SDS011;41759;53.330;6.002;2024-03-08T03:05:19;44.78;;;21.70;;
55829;SDS011;41759;53.330;6.002;2024-03-08T03:07:45;49.30;;;21.92;;
55829;SDS011;41759;53.330;6.002;2024-03-08T03:10:11;43.50;;;20.85;;
55829;SDS011;41759;53.330;6.002;2024-03-08T03:12:43;43.45;;;20.98;;
55829;SDS011;41759;53.330;6.002;2024-03-08T03:15:13;48.17;;;22.63;;
55829;SDS011;41759;53.330;6.002;2024-03-08T03:17:45;42.58;;;20.98;;
55829;SDS011;41759;53.330;6.002;2024-03-08T03:20:12;43.92;;;19.92;;
55829;SDS011;41759;53.330;6.002;2024-03-08T03:22:39;45.55;;;20.08;;
55829;SDS011;41759;53.330;6.002;2024-03-08T03:25:12;38.67;;;19.27;;
55829;SDS011;41759;53.330;6.002;2024-03-08T03:27:37;44.90;;;19.25;;
55829;SDS011;41759;53.330;6.002;2024-03-08T03:30:05;39.80;;;20.25;;
55829;SDS011;41759;53.330;6.002;2024-03-08T03:32:49;44.20;;;19.52;;
55829;SDS011;41759;53.330;6.002;2024-03-08T03:35:19;46.55;;;19.42;;
55829;SDS011;41759;53.330;6.002;2024-03-08T03:37:46;38.08;;;18.60;;
55829;SDS011;41759;53.330;6.002;2024-03-08T03:40:38;37.60;;;18.73;;
55829;SDS011;41759;53.330;6.002;2024-03-08T03:43:05;36.78;;;18.73;;
55829;SDS011;41759;53.330;6.002;2024-03-08T03:45:31;41.08;;;19.50;;
55829;SDS011;41759;53.330;6.002;2024-03-08T03:48:03;46.50;;;20.00;;
55829;SDS011;41759;53.330;6.002;2024-03-08T03:50:31;34.90;;;17.60;;
55829;SDS011;41759;53.330;6.002;2024-03-08T03:52:59;42.10;;;19.70;;
55829;SDS011;41759;53.330;6.002;2024-03-08T03:55:25;43.40;;;19.27;;
55829;SDS011;41759;53.330;6.002;2024-03-08T03:57:52;38.55;;;18.38;;
55829;SDS011;41759;53.330;6.002;2024-03-08T04:00:17;34.38;;;17.67;;
55829;SDS011;41759;53.330;6.002;2024-03-08T04:02:43;36.55;;;15.88;;
55829;SDS011;41759;53.330;6.002;2024-03-08T04:05:10;42.00;;;19.35;;
55829;SDS011;41759;53.330;6.002;2024-03-08T04:07:36;42.70;;;20.17;;
55829;SDS011;41759;53.330;6.002;2024-03-08T04:10:03;40.00;;;19.02;;
55829;SDS011;41759;53.330;6.002;2024-03-08T04:12:31;39.25;;;17.85;;
55829;SDS011;41759;53.330;6.002;2024-03-08T04:14:57;37.28;;;18.02;;
55829;SDS011;41759;53.330;6.002;2024-03-08T04:17:23;38.35;;;17.10;;
55829;SDS011;41759;53.330;6.002;2024-03-08T04:19:51;36.97;;;18.13;;
55829;SDS011;41759;53.330;6.002;2024-03-08T04:22:17;34.08;;;17.50;;
55829;SDS011;41759;53.330;6.002;2024-03-08T04:24:44;35.72;;;17.38;;
55829;SDS011;41759;53.330;6.002;2024-03-08T04:27:10;37.00;;;18.20;;
55829;SDS011;41759;53.330;6.002;2024-03-08T04:29:36;34.72;;;16.50;;
55829;SDS011;41759;53.330;6.002;2024-03-08T04:32:03;38.03;;;17.58;;
55829;SDS011;41759;53.330;6.002;2024-03-08T04:34:30;35.80;;;15.90;;
55829;SDS011;41759;53.330;6.002;2024-03-08T04:36:59;34.35;;;16.98;;
55829;SDS011;41759;53.330;6.002;2024-03-08T04:39:25;39.53;;;17.85;;
55829;SDS011;41759;53.330;6.002;2024-03-08T04:41:53;34.22;;;16.88;;
55829;SDS011;41759;53.330;6.002;2024-03-08T04:44:21;32.05;;;16.05;;
55829;SDS011;41759;53.330;6.002;2024-03-08T04:46:48;41.63;;;18.33;;
55829;SDS011;41759;53.330;6.002;2024-03-08T04:49:14;32.10;;;16.55;;
55829;SDS011;41759;53.330;6.002;2024-03-08T04:51:40;31.35;;;16.45;;
55829;SDS011;41759;53.330;6.002;2024-03-08T04:54:05;35.10;;;16.70;;
55829;SDS011;41759;53.330;6.002;2024-03-08T04:56:31;32.17;;;16.67;;
55829;SDS011;41759;53.330;6.002;2024-03-08T04:58:56;32.53;;;16.40;;
55829;SDS011;41759;53.330;6.002;2024-03-08T05:01:22;34.53;;;16.83;;
55829;SDS011;41759;53.330;6.002;2024-03-08T05:03:48;30.58;;;16.65;;
55829;SDS011;41759;53.330;6.002;2024-03-08T05:06:15;36.25;;;16.90;;
55829;SDS011;41759;53.330;6.002;2024-03-08T05:08:41;33.60;;;16.45;;
55829;SDS011;41759;53.330;6.002;2024-03-08T05:11:07;35.17;;;16.27;;
55829;SDS011;41759;53.330;6.002;2024-03-08T05:13:33;27.60;;;15.70;;
55829;SDS011;41759;53.330;6.002;2024-03-08T05:15:59;31.85;;;16.73;;
55829;SDS011;41759;53.330;6.002;2024-03-08T05:18:25;35.10;;;17.00;;
55829;SDS011;41759;53.330;6.002;2024-03-08T05:20:53;33.58;;;16.75;;
55829;SDS011;41759;53.330;6.002;2024-03-08T05:23:19;33.97;;;16.67;;
55829;SDS011;41759;53.330;6.002;2024-03-08T05:25:45;34.72;;;16.98;;
55829;SDS011;41759;53.330;6.002;2024-03-08T05:28:13;33.08;;;16.88;;
55829;SDS011;41759;53.330;6.002;2024-03-08T05:30:39;35.97;;;17.13;;
55829;SDS011;41759;53.330;6.002;2024-03-08T05:33:05;36.80;;;16.10;;
55829;SDS011;41759;53.330;6.002;2024-03-08T05:35:30;33.45;;;16.98;;
55829;SDS011;41759;53.330;6.002;2024-03-08T05:37:57;33.85;;;17.25;;
55829;SDS011;41759;53.330;6.002;2024-03-08T05:40:23;32.85;;;15.73;;
55829;SDS011;41759;53.330;6.002;2024-03-08T05:42:49;33.33;;;16.27;;
55829;SDS011;41759;53.330;6.002;2024-03-08T05:45:15;34.00;;;15.65;;
55829;SDS011;41759;53.330;6.002;2024-03-08T05:47:40;31.65;;;16.02;;
55829;SDS011;41759;53.330;6.002;2024-03-08T05:50:07;32.55;;;16.27;;
55829;SDS011;41759;53.330;6.002;2024-03-08T05:52:35;39.17;;;16.08;;
55829;SDS011;41759;53.330;6.002;2024-03-08T05:55:03;33.72;;;16.13;;
55829;SDS011;41759;53.330;6.002;2024-03-08T05:57:32;33.03;;;15.50;;
55829;SDS011;41759;53.330;6.002;2024-03-08T05:59:58;37.58;;;16.00;;
55829;SDS011;41759;53.330;6.002;2024-03-08T06:02:24;35.15;;;17.17;;
55829;SDS011;41759;53.330;6.002;2024-03-08T06:04:49;33.80;;;16.63;;
55829;SDS011;41759;53.330;6.002;2024-03-08T06:07:15;31.33;;;15.85;;
55829;SDS011;41759;53.330;6.002;2024-03-08T06:09:42;35.63;;;16.30;;
55829;SDS011;41759;53.330;6.002;2024-03-08T06:12:11;37.42;;;16.95;;
55829;SDS011;41759;53.330;6.002;2024-03-08T06:14:37;34.72;;;17.10;;
55829;SDS011;41759;53.330;6.002;2024-03-08T06:17:03;32.05;;;16.27;;
55829;SDS011;41759;53.330;6.002;2024-03-08T06:19:32;32.28;;;17.05;;
55829;SDS011;41759;53.330;6.002;2024-03-08T06:21:58;31.98;;;15.38;;
55829;SDS011;41759;53.330;6.002;2024-03-08T06:24:23;33.42;;;16.33;;
55829;SDS011;41759;53.330;6.002;2024-03-08T06:26:49;31.88;;;17.00;;
55829;SDS011;41759;53.330;6.002;2024-03-08T06:29:15;34.60;;;16.73;;
55829;SDS011;41759;53.330;6.002;2024-03-08T06:31:41;36.30;;;15.82;;
55829;SDS011;41759;53.330;6.002;2024-03-08T06:34:07;29.33;;;15.75;;
55829;SDS011;41759;53.330;6.002;2024-03-08T06:36:33;34.95;;;16.67;;
55829;SDS011;41759;53.330;6.002;2024-03-08T06:38:59;37.65;;;17.40;;
55829;SDS011;41759;53.330;6.002;2024-03-08T06:41:24;35.30;;;16.35;;
55829;SDS011;41759;53.330;6.002;2024-03-08T06:43:50;36.00;;;16.35;;
55829;SDS011;41759;53.330;6.002;2024-03-08T06:46:17;35.47;;;16.88;;
55829;SDS011;41759;53.330;6.002;2024-03-08T06:48:43;33.38;;;16.25;;
55829;SDS011;41759;53.330;6.002;2024-03-08T06:51:10;34.33;;;15.00;;
55829;SDS011;41759;53.330;6.002;2024-03-08T06:53:36;32.90;;;15.90;;
55829;SDS011;41759;53.330;6.002;2024-03-08T06:56:03;29.95;;;16.02;;
55829;SDS011;41759;53.330;6.002;2024-03-08T06:58:29;33.97;;;16.67;;
55829;SDS011;41759;53.330;6.002;2024-03-08T07:00:55;31.77;;;17.15;;
55829;SDS011;41759;53.330;6.002;2024-03-08T07:03:23;32.38;;;16.75;;
55829;SDS011;41759;53.330;6.002;2024-03-08T07:05:49;27.88;;;13.85;;
55829;SDS011;41759;53.330;6.002;2024-03-08T07:08:15;27.85;;;15.18;;
55829;SDS011;41759;53.330;6.002;2024-03-08T07:10:41;27.58;;;13.63;;
55829;SDS011;41759;53.330;6.002;2024-03-08T07:13:10;27.08;;;16.02;;
55829;SDS011;41759;53.330;6.002;2024-03-08T07:15:36;26.77;;;14.45;;
55829;SDS011;41759;53.330;6.002;2024-03-08T07:18:02;26.15;;;15.23;;
55829;SDS011;41759;53.330;6.002;2024-03-08T07:20:28;24.30;;;12.95;;
55829;SDS011;41759;53.330;6.002;2024-03-08T07:22:53;25.20;;;14.15;;
55829;SDS011;41759;53.330;6.002;2024-03-08T07:25:19;27.80;;;16.23;;
55829;SDS011;41759;53.330;6.002;2024-03-08T07:30:18;23.65;;;13.43;;
55829;SDS011;41759;53.330;6.002;2024-03-08T07:33:09;22.13;;;12.15;;
55829;SDS011;41759;53.330;6.002;2024-03-08T07:35:38;25.13;;;14.40;;
55829;SDS011;41759;53.330;6.002;2024-03-08T07:38:05;25.02;;;13.45;;
55829;SDS011;41759;53.330;6.002;2024-03-08T07:40:33;25.60;;;14.70;;
55829;SDS011;41759;53.330;6.002;2024-03-08T07:43:09;25.17;;;13.25;;
55829;SDS011;41759;53.330;6.002;2024-03-08T07:45:35;21.00;;;12.77;;
55829;SDS011;41759;53.330;6.002;2024-03-08T07:48:05;25.13;;;13.73;;
55829;SDS011;41759;53.330;6.002;2024-03-08T07:50:38;21.17;;;12.82;;
55829;SDS011;41759;53.330;6.002;2024-03-08T07:53:05;24.08;;;13.32;;
55829;SDS011;41759;53.330;6.002;2024-03-08T07:55:32;19.83;;;12.20;;
55829;SDS011;41759;53.330;6.002;2024-03-08T07:57:58;22.45;;;13.35;;
55829;SDS011;41759;53.330;6.002;2024-03-08T08:00:25;22.88;;;14.07;;
55829;SDS011;41759;53.330;6.002;2024-03-08T08:02:52;22.20;;;13.30;;
55829;SDS011;41759;53.330;6.002;2024-03-08T08:05:18;22.73;;;12.20;;
55829;SDS011;41759;53.330;6.002;2024-03-08T08:07:44;21.13;;;12.60;;
55829;SDS011;41759;53.330;6.002;2024-03-08T08:10:11;27.70;;;14.02;;
55829;SDS011;41759;53.330;6.002;2024-03-08T08:12:43;22.75;;;14.57;;
55829;SDS011;41759;53.330;6.002;2024-03-08T08:15:10;24.58;;;13.90;;
55829;SDS011;41759;53.330;6.002;2024-03-08T08:17:35;23.05;;;13.70;;
55829;SDS011;41759;53.330;6.002;2024-03-08T08:20:01;23.63;;;13.23;;
55829;SDS011;41759;53.330;6.002;2024-03-08T08:22:30;19.45;;;13.23;;
55829;SDS011;41759;53.330;6.002;2024-03-08T08:24:56;23.80;;;13.85;;
55829;SDS011;41759;53.330;6.002;2024-03-08T08:27:21;26.00;;;13.75;;
55829;SDS011;41759;53.330;6.002;2024-03-08T08:29:47;25.40;;;13.57;;
55829;SDS011;41759;53.330;6.002;2024-03-08T08:32:14;26.35;;;14.75;;
55829;SDS011;41759;53.330;6.002;2024-03-08T08:34:40;25.63;;;14.63;;
55829;SDS011;41759;53.330;6.002;2024-03-08T08:37:07;25.60;;;14.82;;
55829;SDS011;41759;53.330;6.002;2024-03-08T08:39:34;25.10;;;14.65;;
55829;SDS011;41759;53.330;6.002;2024-03-08T08:42:00;21.70;;;13.65;;
55829;SDS011;41759;53.330;6.002;2024-03-08T08:44:28;24.35;;;14.73;;
55829;SDS011;41759;53.330;6.002;2024-03-08T08:46:53;24.05;;;14.18;;
55829;SDS011;41759;53.330;6.002;2024-03-08T08:49:19;21.27;;;14.15;;
55829;SDS011;41759;53.330;6.002;2024-03-08T08:51:51;25.13;;;15.18;;
55829;SDS011;41759;53.330;6.002;2024-03-08T08:54:17;23.40;;;15.23;;
55829;SDS011;41759;53.330;6.002;2024-03-08T08:56:43;27.77;;;15.02;;
55829;SDS011;41759;53.330;6.002;2024-03-08T08:59:09;22.92;;;14.63;;
55829;SDS011;41759;53.330;6.002;2024-03-08T09:01:39;25.38;;;14.32;;
55829;SDS011;41759;53.330;6.002;2024-03-08T09:04:05;26.00;;;15.27;;
55829;SDS011;41759;53.330;6.002;2024-03-08T09:06:31;23.02;;;14.27;;
55829;SDS011;41759;53.330;6.002;2024-03-08T09:08:57;23.75;;;14.18;;
55829;SDS011;41759;53.330;6.002;2024-03-08T09:11:23;24.23;;;14.50;;
55829;SDS011;41759;53.330;6.002;2024-03-08T09:13:50;22.05;;;14.13;;
55829;SDS011;41759;53.330;6.002;2024-03-08T09:16:16;23.52;;;14.98;;
55829;SDS011;41759;53.330;6.002;2024-03-08T09:18:42;23.38;;;15.18;;
55829;SDS011;41759;53.330;6.002;2024-03-08T09:21:07;24.90;;;15.20;;
55829;SDS011;41759;53.330;6.002;2024-03-08T09:23:38;21.02;;;14.30;;
55829;SDS011;41759;53.330;6.002;2024-03-08T09:26:05;24.27;;;15.02;;
55829;SDS011;41759;53.330;6.002;2024-03-08T09:28:34;25.98;;;15.77;;
55829;SDS011;41759;53.330;6.002;2024-03-08T09:31:00;26.08;;;14.95;;
55829;SDS011;41759;53.330;6.002;2024-03-08T09:33:27;25.77;;;15.35;;
55829;SDS011;41759;53.330;6.002;2024-03-08T09:35:54;24.73;;;14.20;;
55829;SDS011;41759;53.330;6.002;2024-03-08T09:38:19;23.13;;;13.82;;
55829;SDS011;41759;53.330;6.002;2024-03-08T09:40:45;24.77;;;15.27;;
55829;SDS011;41759;53.330;6.002;2024-03-08T09:43:13;22.45;;;13.95;;
55829;SDS011;41759;53.330;6.002;2024-03-08T09:45:38;24.85;;;14.90;;
55829;SDS011;41759;53.330;6.002;2024-03-08T09:48:12;24.17;;;13.27;;
55829;SDS011;41759;53.330;6.002;2024-03-08T09:50:40;24.80;;;14.15;;
55829;SDS011;41759;53.330;6.002;2024-03-08T09:53:06;20.60;;;13.10;;
55829;SDS011;41759;53.330;6.002;2024-03-08T09:55:36;23.75;;;13.68;;
55829;SDS011;41759;53.330;6.002;2024-03-08T09:58:05;21.40;;;12.90;;
55829;SDS011;41759;53.330;6.002;2024-03-08T10:00:50;24.50;;;14.23;;
55829;SDS011;41759;53.330;6.002;2024-03-08T10:03:15;22.08;;;13.82;;
55829;SDS011;41759;53.330;6.002;2024-03-08T10:05:41;22.23;;;13.95;;
55829;SDS011;41759;53.330;6.002;2024-03-08T10:08:08;21.55;;;13.25;;
55829;SDS011;41759;53.330;6.002;2024-03-08T10:10:34;22.35;;;13.20;;
55829;SDS011;41759;53.330;6.002;2024-03-08T10:13:00;23.70;;;14.10;;
55829;SDS011;41759;53.330;6.002;2024-03-08T10:15:29;23.27;;;14.43;;
55829;SDS011;41759;53.330;6.002;2024-03-08T10:17:58;22.45;;;13.57;;
55829;SDS011;41759;53.330;6.002;2024-03-08T10:20:24;23.75;;;14.70;;
55829;SDS011;41759;53.330;6.002;2024-03-08T10:22:51;22.75;;;13.65;;
55829;SDS011;41759;53.330;6.002;2024-03-08T10:25:18;26.17;;;13.57;;
55829;SDS011;41759;53.330;6.002;2024-03-08T10:27:44;23.58;;;14.27;;
55829;SDS011;41759;53.330;6.002;2024-03-08T10:30:12;24.15;;;14.48;;
55829;SDS011;41759;53.330;6.002;2024-03-08T10:32:40;23.70;;;15.63;;
55829;SDS011;41759;53.330;6.002;2024-03-08T10:35:07;25.65;;;16.55;;
55829;SDS011;41759;53.330;6.002;2024-03-08T10:37:33;24.98;;;14.77;;
55829;SDS011;41759;53.330;6.002;2024-03-08T10:40:18;22.15;;;13.95;;
55829;SDS011;41759;53.330;6.002;2024-03-08T10:42:57;24.65;;;15.50;;
55829;SDS011;41759;53.330;6.002;2024-03-08T10:50:38;28.83;;;15.15;;
55829;SDS011;41759;53.330;6.002;2024-03-08T10:53:04;28.73;;;15.82;;
55829;SDS011;41759;53.330;6.002;2024-03-08T10:55:31;27.80;;;16.55;;
55829;SDS011;41759;53.330;6.002;2024-03-08T10:57:59;23.52;;;15.10;;
55829;SDS011;41759;53.330;6.002;2024-03-08T11:00:25;30.85;;;17.08;;
55829;SDS011;41759;53.330;6.002;2024-03-08T11:02:52;27.98;;;15.95;;
55829;SDS011;41759;53.330;6.002;2024-03-08T11:05:38;24.58;;;15.50;;
55829;SDS011;41759;53.330;6.002;2024-03-08T11:08:15;24.77;;;14.65;;
55829;SDS011;41759;53.330;6.002;2024-03-08T11:13:38;27.05;;;14.57;;
55829;SDS011;41759;53.330;6.002;2024-03-08T11:16:11;26.10;;;17.25;;
55829;SDS011;41759;53.330;6.002;2024-03-08T11:18:48;29.85;;;17.55;;
55829;SDS011;41759;53.330;6.002;2024-03-08T11:21:14;26.05;;;15.43;;
55829;SDS011;41759;53.330;6.002;2024-03-08T11:23:40;29.85;;;16.92;;
55829;SDS011;41759;53.330;6.002;2024-03-08T11:26:19;26.05;;;15.88;;
55829;SDS011;41759;53.330;6.002;2024-03-08T11:28:46;28.48;;;15.50;;
55829;SDS011;41759;53.330;6.002;2024-03-08T11:33:39;28.83;;;16.48;;
55829;SDS011;41759;53.330;6.002;2024-03-08T11:36:22;25.98;;;14.73;;
55829;SDS011;41759;53.330;6.002;2024-03-08T11:38:50;30.27;;;16.23;;
55829;SDS011;41759;53.330;6.002;2024-03-08T11:41:24;27.15;;;16.50;;
55829;SDS011;41759;53.330;6.002;2024-03-08T11:44:04;36.78;;;17.92;;
55829;SDS011;41759;53.330;6.002;2024-03-08T11:46:31;28.48;;;16.65;;
55829;SDS011;41759;53.330;6.002;2024-03-08T11:48:56;28.40;;;16.25;;
55829;SDS011;41759;53.330;6.002;2024-03-08T11:51:22;29.15;;;17.75;;
55829;SDS011;41759;53.330;6.002;2024-03-08T11:53:49;20.48;;;13.38;;
55829;SDS011;41759;53.330;6.002;2024-03-08T11:56:15;26.50;;;15.98;;
55829;SDS011;41759;53.330;6.002;2024-03-08T11:58:41;28.20;;;16.27;;
55829;SDS011;41759;53.330;6.002;2024-03-08T12:01:08;30.05;;;16.30;;
55829;SDS011;41759;53.330;6.002;2024-03-08T12:03:38;24.77;;;14.88;;
55829;SDS011;41759;53.330;6.002;2024-03-08T12:06:10;27.50;;;16.35;;
55829;SDS011;41759;53.330;6.002;2024-03-08T12:08:38;26.92;;;15.88;;
55829;SDS011;41759;53.330;6.002;2024-03-08T12:11:04;25.83;;;14.95;;
55829;SDS011;41759;53.330;6.002;2024-03-08T12:13:31;27.73;;;16.42;;
55829;SDS011;41759;53.330;6.002;2024-03-08T12:15:59;28.65;;;16.60;;
55829;SDS011;41759;53.330;6.002;2024-03-08T12:18:28;28.23;;;16.15;;
55829;SDS011;41759;53.330;6.002;2024-03-08T12:21:04;26.60;;;16.58;;
55829;SDS011;41759;53.330;6.002;2024-03-08T12:23:35;28.58;;;16.10;;
55829;SDS011;41759;53.330;6.002;2024-03-08T12:26:15;29.20;;;17.55;;
55829;SDS011;41759;53.330;6.002;2024-03-08T12:28:41;26.98;;;15.32;;
55829;SDS011;41759;53.330;6.002;2024-03-08T12:31:14;29.23;;;16.23;;
55829;SDS011;41759;53.330;6.002;2024-03-08T12:36:18;29.50;;;17.48;;
55829;SDS011;41759;53.330;6.002;2024-03-08T12:38:48;28.17;;;16.15;;
55829;SDS011;41759;53.330;6.002;2024-03-08T12:41:17;30.95;;;16.00;;
55829;SDS011;41759;53.330;6.002;2024-03-08T12:43:47;27.73;;;16.73;;
55829;SDS011;41759;53.330;6.002;2024-03-08T12:46:16;24.27;;;15.75;;
55829;SDS011;41759;53.330;6.002;2024-03-08T12:48:45;28.92;;;16.33;;
55829;SDS011;41759;53.330;6.002;2024-03-08T12:51:15;27.95;;;16.40;;
55829;SDS011;41759;53.330;6.002;2024-03-08T12:53:44;29.25;;;16.00;;
55829;SDS011;41759;53.330;6.002;2024-03-08T12:56:15;26.55;;;16.20;;
55829;SDS011;41759;53.330;6.002;2024-03-08T12:58:53;24.90;;;15.95;;
55829;SDS011;41759;53.330;6.002;2024-03-08T13:01:19;27.95;;;16.98;;
55829;SDS011;41759;53.330;6.002;2024-03-08T13:03:44;23.58;;;15.13;;
55829;SDS011;41759;53.330;6.002;2024-03-08T13:06:12;26.27;;;15.60;;
55829;SDS011;41759;53.330;6.002;2024-03-08T13:08:38;26.85;;;16.20;;
55829;SDS011;41759;53.330;6.002;2024-03-08T13:11:07;25.95;;;14.85;;
55829;SDS011;41759;53.330;6.002;2024-03-08T13:13:36;28.05;;;16.52;;
55829;SDS011;41759;53.330;6.002;2024-03-08T13:16:03;28.52;;;16.42;;
55829;SDS011;41759;53.330;6.002;2024-03-08T13:18:33;24.92;;;15.90;;
55829;SDS011;41759;53.330;6.002;2024-03-08T13:20:58;24.42;;;15.00;;
55829;SDS011;41759;53.330;6.002;2024-03-08T13:23:24;24.52;;;15.27;;
55829;SDS011;41759;53.330;6.002;2024-03-08T13:25:50;27.20;;;16.42;;
55829;SDS011;41759;53.330;6.002;2024-03-08T13:28:16;27.10;;;14.40;;
55829;SDS011;41759;53.330;6.002;2024-03-08T13:30:48;29.35;;;15.98;;
55829;SDS011;41759;53.330;6.002;2024-03-08T13:33:13;26.20;;;15.60;;
55829;SDS011;41759;53.330;6.002;2024-03-08T13:35:39;25.92;;;15.70;;
55829;SDS011;41759;53.330;6.002;2024-03-08T13:38:06;25.70;;;16.00;;
55829;SDS011;41759;53.330;6.002;2024-03-08T13:40:34;27.65;;;15.73;;
55829;SDS011;41759;53.330;6.002;2024-03-08T13:43:00;29.77;;;17.08;;
55829;SDS011;41759;53.330;6.002;2024-03-08T13:45:26;24.13;;;15.40;;
55829;SDS011;41759;53.330;6.002;2024-03-08T13:47:52;31.55;;;16.52;;
55829;SDS011;41759;53.330;6.002;2024-03-08T13:50:19;25.42;;;15.50;;
55829;SDS011;41759;53.330;6.002;2024-03-08T13:52:51;25.23;;;16.15;;
55829;SDS011;41759;53.330;6.002;2024-03-08T13:55:18;23.45;;;13.30;;
55829;SDS011;41759;53.330;6.002;2024-03-08T13:57:44;23.98;;;14.15;;
55829;SDS011;41759;53.330;6.002;2024-03-08T14:00:11;24.95;;;15.20;;
55829;SDS011;41759;53.330;6.002;2024-03-08T14:02:37;26.23;;;15.63;;
55829;SDS011;41759;53.330;6.002;2024-03-08T14:05:06;26.85;;;14.50;;
55829;SDS011;41759;53.330;6.002;2024-03-08T14:07:34;22.85;;;14.40;;
55829;SDS011;41759;53.330;6.002;2024-03-08T14:10:00;24.85;;;13.85;;
55829;SDS011;41759;53.330;6.002;2024-03-08T14:12:26;22.85;;;14.18;;
55829;SDS011;41759;53.330;6.002;2024-03-08T14:14:55;25.75;;;15.38;;
55829;SDS011;41759;53.330;6.002;2024-03-08T14:17:25;24.85;;;14.38;;
55829;SDS011;41759;53.330;6.002;2024-03-08T14:19:52;21.27;;;12.60;;
55829;SDS011;41759;53.330;6.002;2024-03-08T14:22:18;22.35;;;14.02;;
55829;SDS011;41759;53.330;6.002;2024-03-08T14:24:47;20.67;;;12.40;;
55829;SDS011;41759;53.330;6.002;2024-03-08T14:27:14;22.27;;;13.88;;
55829;SDS011;41759;53.330;6.002;2024-03-08T14:29:42;21.10;;;13.48;;
55829;SDS011;41759;53.330;6.002;2024-03-08T14:32:08;21.45;;;13.48;;
55829;SDS011;41759;53.330;6.002;2024-03-08T14:34:35;21.58;;;13.05;;
55829;SDS011;41759;53.330;6.002;2024-03-08T14:37:01;26.25;;;13.45;;
55829;SDS011;41759;53.330;6.002;2024-03-08T14:39:31;21.40;;;12.52;;
55829;SDS011;41759;53.330;6.002;2024-03-08T14:41:58;20.90;;;12.88;;